createdAt,value
2023-05-11T00:03:43.306Z,15.00
2023-05-11T00:13:45.448Z,15.57
2023-05-11T00:23:47.040Z,17.00
2023-05-11T00:33:48.439Z,17.73
2023-05-11T00:43:49.983Z,17.58
2023-05-11T00:53:51.546Z,17.50
2023-05-11T01:03:53.071Z,17.50
2023-05-11T01:14:06.466Z,18.98
2023-05-11T01:24:37.403Z,18.17
2023-05-11T01:34:40.791Z,17.57
2023-05-11T01:44:45.885Z,19.15
2023-05-11T01:54:49.972Z,17.63
2023-05-11T02:04:51.655Z,18.13
2023-05-11T02:14:54.031Z,17.05
2023-05-11T02:24:55.581Z,18.17
2023-05-11T02:35:16.293Z,19.13
2023-05-11T02:45:19.491Z,17.57
2023-05-11T02:55:22.297Z,17.80
2023-05-11T03:05:24.264Z,15.23
2023-05-11T03:15:26.937Z,14.07
2023-05-11T03:25:29.173Z,15.23
2023-05-11T03:35:34.681Z,14.83
2023-05-11T03:45:37.453Z,14.97
2023-05-11T03:55:38.819Z,13.63
2023-05-11T04:05:41.254Z,11.45
2023-05-11T04:15:42.697Z,12.60
2023-05-11T04:25:44.096Z,12.63
2023-05-11T04:35:45.637Z,14.52
2023-05-11T04:45:50.983Z,14.00
2023-05-11T04:55:52.653Z,14.80
2023-05-11T05:05:54.103Z,15.75
2023-05-11T05:15:55.547Z,15.23
2023-05-11T05:25:56.929Z,17.13
2023-05-11T05:35:58.296Z,15.85
2023-05-11T05:45:59.848Z,12.70
2023-05-11T05:56:01.400Z,16.10
2023-05-11T06:06:02.844Z,15.60
2023-05-11T06:16:04.530Z,15.13
2023-05-11T06:26:06.089Z,17.87
2023-05-11T06:36:07.824Z,15.02
2023-05-11T06:46:10.068Z,19.00
2023-05-11T06:56:11.657Z,16.13
2023-05-11T07:06:13.035Z,15.90
2023-05-11T07:16:14.454Z,14.07
2023-05-11T07:26:16.348Z,11.93
2023-05-11T07:36:18.455Z,14.15
2023-05-11T07:46:19.990Z,16.40
2023-05-11T07:56:21.511Z,13.00
2023-05-11T08:06:22.970Z,13.27
2023-05-11T08:16:24.457Z,12.40
2023-05-11T08:26:25.835Z,12.40
2023-05-11T08:36:27.347Z,9.80
2023-05-11T08:46:30.357Z,10.02
2023-05-11T08:56:32.502Z,10.17
2023-05-11T09:06:34.352Z,9.47
2023-05-11T09:16:37.648Z,11.57
2023-05-11T09:26:39.640Z,10.98
2023-05-11T09:36:46.355Z,12.20
2023-05-11T09:46:48.542Z,11.73
2023-05-11T09:56:54.362Z,11.98
2023-05-11T10:06:56.318Z,12.70
2023-05-11T10:16:58.499Z,13.50
2023-05-11T10:27:01.525Z,13.60
2023-05-11T10:37:03.141Z,12.30
2023-05-11T10:47:20.694Z,15.37
2023-05-11T10:57:47.897Z,12.38
2023-05-11T11:08:07.376Z,13.00
2023-05-11T11:18:25.089Z,13.20
2023-05-11T11:28:26.751Z,15.83
2023-05-11T11:38:29.722Z,15.38
2023-05-11T11:48:40.403Z,14.60
2023-05-11T11:58:41.896Z,15.17
2023-05-11T12:08:43.262Z,15.50
2023-05-11T12:18:53.474Z,14.17
2023-05-11T12:29:15.941Z,14.73
2023-05-11T12:39:26.346Z,14.65
2023-05-11T12:49:28.149Z,13.00
2023-05-11T12:59:36.211Z,12.70
2023-05-11T13:09:38.092Z,12.90
2023-05-11T13:19:39.672Z,12.88
2023-05-11T13:29:41.110Z,13.43
2023-05-11T13:39:42.581Z,13.00
2023-05-11T13:49:44.302Z,12.48
2023-05-11T13:59:45.922Z,12.37
2023-05-11T14:09:48.738Z,12.60
2023-05-11T14:19:50.271Z,11.75
2023-05-11T14:29:52.202Z,4.80
2023-05-11T14:39:53.817Z,3.53
2023-05-11T14:49:55.241Z,2.73
2023-05-11T15:00:00.092Z,2.85
2023-05-11T15:10:02.289Z,2.13
2023-05-11T15:20:04.151Z,2.83
2023-05-11T15:30:06.145Z,2.40
2023-05-11T15:40:08.654Z,2.73
2023-05-11T15:50:10.231Z,2.93
2023-05-11T16:00:12.765Z,3.35
2023-05-11T16:10:14.177Z,3.10
2023-05-11T16:20:15.610Z,2.73
2023-05-11T16:30:24.554Z,2.70
2023-05-11T16:40:26.988Z,2.35
2023-05-11T16:50:28.451Z,2.67
2023-05-11T17:00:30.539Z,3.23
2023-05-11T17:10:33.671Z,3.30
2023-05-11T17:20:35.125Z,2.83
2023-05-11T17:30:48.273Z,3.00
2023-05-11T17:40:50.326Z,2.75
2023-05-11T17:50:51.748Z,3.55
2023-05-11T18:00:53.756Z,3.60
2023-05-11T18:10:55.544Z,3.47
2023-05-11T18:20:57.456Z,3.92
2023-05-11T18:30:58.940Z,4.30
2023-05-11T18:41:05.061Z,5.00
2023-05-11T18:51:06.808Z,4.60
2023-05-11T19:01:09.255Z,4.67
2023-05-11T19:11:11.151Z,4.90
2023-05-11T19:21:12.709Z,4.90
2023-05-11T19:31:14.214Z,4.82
2023-05-11T19:41:16.447Z,5.43
2023-05-11T19:51:18.605Z,5.50
2023-05-11T20:01:19.982Z,5.85
2023-05-11T20:11:21.977Z,5.77
2023-05-11T20:21:23.382Z,6.50
2023-05-11T20:31:26.465Z,6.28
2023-05-11T20:41:28.818Z,5.87
2023-05-11T20:51:30.157Z,7.07
2023-05-11T21:01:31.688Z,6.88
2023-05-11T21:11:33.082Z,7.65
2023-05-11T21:21:34.427Z,8.43
2023-05-11T21:31:35.908Z,8.17
2023-05-11T21:41:37.289Z,9.65
2023-05-11T21:51:38.899Z,8.67
2023-05-11T22:01:40.314Z,10.03
2023-05-11T22:11:41.683Z,10.00
2023-05-11T22:21:43.164Z,10.00
2023-05-11T22:31:46.186Z,9.63
2023-05-11T22:41:47.810Z,9.80
2023-05-11T22:51:49.207Z,9.65
2023-05-11T23:01:50.775Z,9.97
2023-05-11T23:11:52.420Z,9.70
2023-05-11T23:21:54.005Z,8.88
2023-05-11T23:31:55.924Z,9.73
2023-05-11T23:41:57.307Z,8.27
2023-05-11T23:51:58.651Z,5.97
